x

Molasses Reef, Fl (mlrf1) Weather Station

7:00am - Sat 18th Apr 2015 All times are EDT. -4 hours from GMT.

  • Wind
    3mph, 5mph gusts
  • Sea Temp 79°f
  • Air Temp 78°f
  • Sea Pressure 1015.9mb
  • Molasses Reef, Fl
  • Molasses Reef, Fl

More Historic Weather Station data

Upgrade to MSW Pro to gain access to the past 30 days of data for over 8000 Wavebouys and Weather Stations around the globe.

Join Pro

Comparision Forecast

View Surf forecast
   
Sat 04/18 7:00am 3 5 mph 1015.9mb 79f 78f
6:00am 8 9 mph 1015.3mb 80f 79f
5:00am 10
mph
1014.9mb 80f 78f
4:00am 9 10 mph 1015mb 80f 78f
3:00am 8 9 mph 1015.5mb 79f 79f
2:00am 8 9 mph 1015.9mb 79f 79f
1:00am 6 7 mph 1016.4mb 79f 79f
12:00am 7 8 mph 1016.5mb 79f 79f
Fri 04/17 11:00pm 7 8 mph 1016.3mb 79f 79f
10:00pm 2 3 mph 1016.5mb 79f 79f
9:00pm 3 5 mph 1015.8mb 79f 79f
8:00pm 5 6 mph 1015.4mb 79f 79f
7:00pm 8 9 mph 1015.3mb 79f 79f
6:00pm 9 10 mph 1015.5mb 79f 79f
5:00pm 7 8 mph 1015.7mb 80f 80f
4:00pm 9 10 mph 1015.9mb 80f 80f
3:00pm 6 7 mph 1016.8mb 80f 80f
2:00pm 8 9 mph 1017.4mb 80f 80f
1:00pm 10 11 mph 1018mb 80f 79f
12:00pm 11 13 mph 1018.6mb 80f 79f
11:00am 11 13 mph 1018.8mb 79f 79f
10:00am 11 13 mph 1018.7mb 79f 80f
9:00am 13 14 mph 1018.5mb 79f 79f
8:00am 15
mph
1018.1mb 79f 79f
7:00am 14 16 mph 1017.3mb 79f 79f
6:00am 18 21 mph 1016.7mb 79f 79f
5:00am 13 14 mph 1016.4mb 79f 79f
4:00am 11 14 mph 1016.7mb 79f 79f
3:00am 15 17 mph 1016.7mb 79f 79f
2:00am 13 14 mph 1017.2mb 79f 79f
1:00am 11 13 mph 1017.9mb 79f 79f
12:00am 10 11 mph 1018.4mb 79f 79f
Thu 04/16 11:00pm 10 11 mph 1018.6mb 79f 79f
10:00pm 11 13 mph 1018.1mb 79f 79f
9:00pm 13 14 mph 1017.3mb 79f 79f
8:00pm 11 15 mph 1016.9mb 79f 79f
7:00pm 11 13 mph 1016.8mb 79f 79f
6:00pm 13 14 mph 1016.8mb 80f 79f
5:00pm 10 11 mph 1017.3mb 80f 79f
4:00pm 11 13 mph 1017.5mb 80f 79f
3:00pm 10 11 mph 1018mb 80f 79f
2:00pm 13 14 mph 1018.4mb 80f 80f
1:00pm 11 13 mph 1019.2mb 80f 79f
12:00pm 11 13 mph 1019.7mb 80f 80f
11:00am 11
mph
1019.8mb 80f 79f
10:00am 13 14 mph 1019.3mb 79f 79f
9:00am 15 16 mph 1018.9mb 79f 79f
8:00am 13 16 mph 1018.6mb 79f 79f
7:00am 13 15 mph 1018.2mb 79f 79f
6:00am 14 15 mph 1017.3mb 79f 78f
5:00am 11 13 mph 1017mb 79f 79f
4:00am 11 14 mph 1017.4mb 79f 79f
3:00am 11 13 mph 1017.4mb 79f 78f
2:00am 11 13 mph 1018mb 79f 79f
1:00am 14 15 mph 1018.7mb 79f 79f
12:00am 16 17 mph 1018.6mb 79f 79f
Wed 04/15 11:00pm 15 17 mph 1018.8mb 79f 79f
10:00pm 14 15 mph 1018.6mb 79f 79f
9:00pm 11 13 mph 1018.1mb 79f 79f
8:00pm 15 16 mph 1017.3mb 79f 79f
7:00pm 9 10 mph 1017.1mb 79f 79f
6:00pm 10 11 mph 1016.9mb 79f 80f
5:00pm 11
mph
1017mb 79f 80f
4:00pm 11 14 mph 1017.4mb 79f 80f
3:00pm 13 15 mph 1017.9mb 79f 79f
2:00pm 13 14 mph 1018.5mb 79f 79f
1:00pm 13
mph
1019.1mb 79f 79f
12:00pm 14 15 mph 1019.5mb 79f 79f
11:00am 11 13 mph 1019.6mb 79f 80f
10:00am 11 13 mph 1019.4mb 79f 79f
9:00am 13
mph
1019.1mb 78f 79f
8:00am 14 15 mph 1018.7mb 78f 79f
7:00am 13 14 mph 1018.1mb 78f 78f
6:00am 13 14 mph 1017.6mb 78f 79f
5:00am 15 18 mph 1017.4mb 78f 79f
4:00am 14 15 mph 1016.9mb 79f 79f
3:00am 13
mph
1017.2mb 79f 79f
2:00am 10 11 mph 1017.7mb 79f 79f
1:00am 11 13 mph 1018.4mb 79f 79f
12:00am 11 13 mph 1019mb 79f 78f
Tue 04/14 11:00pm 13
mph
1019.2mb 79f 78f
10:00pm 10 13 mph 1019.2mb 79f 78f
9:00pm 10 11 mph 1018.4mb 79f 78f
8:00pm 11 13 mph 1017.6mb 79f 78f
7:00pm 14 15 mph 1017.6mb 79f 79f
6:00pm 13
mph
1017.9mb 79f 79f
5:00pm 10 11 mph 1018.3mb 79f 79f
4:00pm 13
mph
1018.9mb 79f 79f
3:00pm 14
mph
1019.3mb 79f 79f
2:00pm 14 15 mph 1020.2mb 79f 79f
1:00pm 11 14 mph 1021mb 79f 78f